createdAt,value
2023-04-02T00:01:27.004Z,100247.06
2023-04-02T00:03:59.337Z,100239.31
2023-04-02T00:06:26.076Z,100234.56
2023-04-02T00:08:56.318Z,100253.16
2023-04-02T00:11:22.720Z,100247.66
2023-04-02T00:13:49.217Z,100260.41
2023-04-02T00:16:15.766Z,100261.19
2023-04-02T00:18:42.213Z,100269.28
2023-04-02T00:21:08.708Z,100271.38
2023-04-02T00:23:35.245Z,100274.84
2023-04-02T00:26:01.614Z,100289.44
2023-04-02T00:28:28.214Z,100292.78
2023-04-02T00:30:54.632Z,100291.00
2023-04-02T00:33:21.051Z,100293.91
2023-04-02T00:35:47.491Z,100300.44
2023-04-02T00:38:14.173Z,100315.84
2023-04-02T00:40:40.556Z,100305.56
2023-04-02T00:43:06.984Z,100317.38
2023-04-02T00:45:33.749Z,100315.44
2023-04-02T00:48:00.605Z,100327.13
2023-04-02T00:50:27.015Z,100323.75
2023-04-02T00:52:53.434Z,100354.94
2023-04-02T00:55:19.830Z,100349.00
2023-04-02T00:57:46.523Z,100347.84
2023-04-02T01:00:13.029Z,100366.06
2023-04-02T01:02:41.108Z,100347.09
2023-04-02T01:05:07.764Z,100356.59
2023-04-02T01:07:34.229Z,100376.88
2023-04-02T01:10:00.843Z,100362.97
2023-04-02T01:12:27.278Z,100353.53
2023-04-02T01:14:53.826Z,100361.59
2023-04-02T01:17:20.261Z,100369.44
2023-04-02T01:19:46.649Z,100366.59
2023-04-02T01:22:13.957Z,100376.13
2023-04-02T01:24:40.331Z,100373.38
2023-04-02T01:27:08.122Z,100387.56
2023-04-02T01:29:34.526Z,100388.94
2023-04-02T01:32:01.177Z,100407.41
2023-04-02T01:34:28.248Z,100402.78
2023-04-02T01:36:54.774Z,100395.63
2023-04-02T01:39:21.107Z,100408.50
2023-04-02T01:41:47.508Z,100403.53
2023-04-02T01:44:13.848Z,100403.88
2023-04-02T01:46:40.253Z,100418.78
2023-04-02T01:49:07.034Z,100420.53
2023-04-02T01:51:33.445Z,100424.34
2023-04-02T01:54:01.679Z,100422.00
2023-04-02T01:56:28.656Z,100430.97
2023-04-02T01:58:55.100Z,100427.34
2023-04-02T02:01:22.419Z,100440.66
2023-04-02T02:03:51.237Z,100436.81
2023-04-02T02:06:17.729Z,100455.94
2023-04-02T02:08:44.981Z,100456.22
2023-04-02T02:11:11.772Z,100454.56
2023-04-02T02:13:38.815Z,100473.66
2023-04-02T02:16:06.404Z,100467.88
2023-04-02T02:18:32.783Z,100469.06
2023-04-02T02:20:59.357Z,100476.25
2023-04-02T02:23:25.799Z,100482.75
2023-04-02T02:25:52.183Z,100490.63
2023-04-02T02:28:19.119Z,100500.09
2023-04-02T02:30:45.755Z,100501.38
2023-04-02T02:33:14.509Z,100499.19
2023-04-02T02:35:41.430Z,100500.31
2023-04-02T02:38:07.987Z,100522.06
2023-04-02T02:40:35.277Z,100530.56
2023-04-02T02:43:01.991Z,100538.19
2023-04-02T02:45:28.832Z,100529.84
2023-04-02T02:47:55.572Z,100532.25
2023-04-02T02:50:22.100Z,100540.69
2023-04-02T02:52:49.308Z,100542.41
2023-04-02T02:55:15.857Z,100550.69
2023-04-02T02:57:50.838Z,100543.97
2023-04-02T03:00:19.701Z,100552.88
2023-04-02T03:02:46.669Z,100551.19
2023-04-02T03:05:16.205Z,100563.59
2023-04-02T03:07:43.004Z,100581.78
2023-04-02T03:10:09.425Z,100576.56
2023-04-02T03:12:36.093Z,100605.94
2023-04-02T03:15:03.470Z,100588.13
2023-04-02T03:17:30.604Z,100596.00
2023-04-02T03:19:57.583Z,100594.91
2023-04-02T03:22:24.126Z,100605.03
2023-04-02T03:24:50.886Z,100609.91
2023-04-02T03:27:17.517Z,100615.03
2023-04-02T03:29:44.710Z,100611.16
2023-04-02T03:32:12.362Z,100620.03
2023-04-02T03:34:38.879Z,100628.66
2023-04-02T03:37:05.866Z,100629.84
2023-04-02T03:39:33.374Z,100635.28
2023-04-02T03:41:59.895Z,100644.66
2023-04-02T03:44:26.582Z,100630.34
2023-04-02T03:46:57.383Z,100650.84
2023-04-02T03:49:25.938Z,100658.13
2023-04-02T03:51:53.320Z,100661.28
2023-04-02T03:54:20.573Z,100664.03
2023-04-02T03:56:47.677Z,100665.19
2023-04-02T03:59:21.491Z,100680.81
2023-04-02T04:01:48.141Z,100679.72
2023-04-02T04:04:14.621Z,100679.69
2023-04-02T04:06:41.108Z,100698.41
2023-04-02T04:09:08.748Z,100698.31
2023-04-02T04:11:35.360Z,100707.22
2023-04-02T04:14:03.319Z,100717.00
2023-04-02T04:16:29.980Z,100733.16
2023-04-02T04:18:57.159Z,100730.56
2023-04-02T04:21:30.224Z,100727.47
2023-04-02T04:24:03.826Z,100740.28
2023-04-02T04:26:34.843Z,100742.53
2023-04-02T04:29:05.554Z,100744.16
2023-04-02T04:31:38.897Z,100754.19
2023-04-02T04:34:06.184Z,100754.09
2023-04-02T04:36:35.430Z,100761.34
2023-04-02T04:39:07.534Z,100760.59
2023-04-02T04:41:35.719Z,100766.50
2023-04-02T04:44:02.359Z,100788.09
2023-04-02T04:46:30.175Z,100790.81
2023-04-02T04:48:57.597Z,100788.19
2023-04-02T04:51:24.451Z,100797.69
2023-04-02T04:53:51.461Z,100796.97
2023-04-02T04:56:20.321Z,100811.16
2023-04-02T04:58:52.601Z,100810.78
2023-04-02T05:01:19.088Z,100830.75
2023-04-02T05:03:46.181Z,100826.72
2023-04-02T05:06:13.102Z,100846.34
2023-04-02T05:08:41.356Z,100854.78
2023-04-02T05:11:08.770Z,100850.41
2023-04-02T05:13:35.791Z,100856.34
2023-04-02T05:16:02.538Z,100867.56
2023-04-02T05:18:29.387Z,100865.66
2023-04-02T05:20:56.439Z,100890.09
2023-04-02T05:23:23.943Z,100879.28
2023-04-02T05:25:52.176Z,100887.34
2023-04-02T05:28:18.921Z,100897.78
2023-04-02T05:30:46.799Z,100889.06
2023-04-02T05:33:14.769Z,100897.69
2023-04-02T05:35:41.199Z,100909.47
2023-04-02T05:38:07.725Z,100913.38
2023-04-02T05:40:34.538Z,100917.41
2023-04-02T05:43:01.101Z,100916.78
2023-04-02T05:45:27.717Z,100931.16
2023-04-02T05:48:01.862Z,100922.03
2023-04-02T05:50:37.442Z,100952.28
2023-04-02T05:53:06.481Z,100941.53
2023-04-02T05:55:33.107Z,100940.72
2023-04-02T05:58:21.503Z,100948.66
2023-04-02T06:00:47.571Z,100959.13
2023-04-02T06:03:18.814Z,100961.66
2023-04-02T06:05:45.994Z,100965.19
2023-04-02T06:08:13.113Z,100980.25
2023-04-02T06:10:39.543Z,100986.25
2023-04-02T06:13:05.977Z,100979.38
2023-04-02T06:15:39.461Z,100996.34
2023-04-02T06:18:10.043Z,101000.19
2023-04-02T06:20:39.255Z,101010.56
2023-04-02T06:23:05.907Z,101012.66
2023-04-02T06:25:32.379Z,101016.78
2023-04-02T06:27:59.856Z,101016.78
2023-04-02T06:30:26.264Z,101041.47
2023-04-02T06:32:52.995Z,101038.16
2023-04-02T06:35:20.626Z,101036.47
2023-04-02T06:37:56.063Z,101048.94
2023-04-02T06:40:26.470Z,101043.88
2023-04-02T06:42:59.494Z,101056.06
2023-04-02T06:45:33.035Z,101056.41
2023-04-02T06:48:17.220Z,101070.63
2023-04-02T06:50:45.397Z,101061.38
2023-04-02T06:53:12.425Z,101072.31
2023-04-02T06:55:39.234Z,101077.75
2023-04-02T06:58:06.353Z,101080.03
2023-04-02T07:00:33.080Z,101091.75
2023-04-02T07:02:59.916Z,101092.75
2023-04-02T07:05:27.063Z,101094.78
2023-04-02T07:07:53.848Z,101092.16
2023-04-02T07:10:20.336Z,101106.69
2023-04-02T07:12:47.863Z,101115.09
2023-04-02T07:15:14.398Z,101113.88
2023-04-02T07:17:41.917Z,101113.84
2023-04-02T07:20:08.419Z,101127.25
2023-04-02T07:22:34.797Z,101130.97
2023-04-02T07:25:02.487Z,101138.94
2023-04-02T07:27:28.989Z,101126.81
2023-04-02T07:29:55.362Z,101147.91
2023-04-02T07:32:21.800Z,101150.25
2023-04-02T07:34:49.004Z,101157.06
2023-04-02T07:37:15.580Z,101174.31
2023-04-02T07:39:42.264Z,101154.31
2023-04-02T07:42:08.718Z,101162.81
2023-04-02T07:44:35.292Z,101176.06
2023-04-02T07:47:01.775Z,101182.84
2023-04-02T07:49:28.342Z,101179.66
2023-04-02T07:51:54.730Z,101191.81
2023-04-02T07:54:21.334Z,101198.94
2023-04-02T07:56:47.800Z,101190.91
2023-04-02T07:59:14.222Z,101213.19
2023-04-02T08:01:43.037Z,101198.88
2023-04-02T08:04:09.586Z,101206.81
2023-04-02T08:06:36.047Z,101214.41
2023-04-02T08:09:02.408Z,101215.63
2023-04-02T08:11:31.560Z,101222.34
2023-04-02T08:13:58.230Z,101223.88
2023-04-02T08:16:25.452Z,101215.44
2023-04-02T08:18:51.954Z,101225.38
2023-04-02T08:21:18.330Z,101239.75
2023-04-02T08:23:44.740Z,101247.03
2023-04-02T08:26:11.127Z,101255.97
2023-04-02T08:28:37.510Z,101281.69
2023-04-02T08:31:04.843Z,101275.91
2023-04-02T08:33:31.443Z,101281.84
2023-04-02T08:35:57.850Z,101280.84
2023-04-02T08:38:24.607Z,101289.09
2023-04-02T08:40:51.048Z,101292.72
2023-04-02T08:43:17.461Z,101283.88
2023-04-02T08:45:43.893Z,101304.84
2023-04-02T08:48:10.372Z,101315.47
2023-04-02T08:50:36.798Z,101303.88
2023-04-02T08:53:03.228Z,101313.22
2023-04-02T08:55:30.026Z,101307.88
2023-04-02T08:57:56.388Z,101315.16
2023-04-02T09:00:22.808Z,101327.09
2023-04-02T09:02:49.207Z,101327.66
2023-04-02T09:05:16.012Z,101338.16
2023-04-02T09:07:42.373Z,101339.00
2023-04-02T09:10:08.742Z,101344.88
2023-04-02T09:12:35.380Z,101355.00
2023-04-02T09:15:01.796Z,101357.41
2023-04-02T09:17:28.198Z,101363.84
2023-04-02T09:19:55.006Z,101359.00
2023-04-02T09:22:21.542Z,101356.75
2023-04-02T09:24:47.922Z,101369.41
2023-04-02T09:27:14.329Z,101374.34
2023-04-02T09:29:40.821Z,101373.53
2023-04-02T09:32:07.437Z,101378.00
2023-04-02T09:34:33.785Z,101386.38
2023-04-02T09:37:00.766Z,101392.91
2023-04-02T09:39:27.443Z,101394.28
2023-04-02T09:42:05.156Z,101401.19
2023-04-02T09:44:32.259Z,101402.91
2023-04-02T09:47:03.924Z,101415.22
2023-04-02T09:49:30.479Z,101426.03
2023-04-02T09:51:56.868Z,101421.03
2023-04-02T09:54:23.268Z,101427.69
2023-04-02T09:56:50.036Z,101424.94
2023-04-02T09:59:16.766Z,101437.97
2023-04-02T10:01:43.264Z,101438.91
2023-04-02T10:04:09.676Z,101432.25
2023-04-02T10:06:36.261Z,101442.44
2023-04-02T10:09:02.709Z,101451.84
2023-04-02T10:11:36.483Z,101456.09
2023-04-02T10:14:06.526Z,101464.09
2023-04-02T10:16:33.340Z,101464.09
2023-04-02T10:19:00.490Z,101462.31
2023-04-02T10:21:27.464Z,101470.75
2023-04-02T10:23:53.800Z,101480.25
2023-04-02T10:26:20.761Z,101477.19
2023-04-02T10:28:47.161Z,101483.03
2023-04-02T10:31:13.553Z,101491.66
2023-04-02T10:33:39.984Z,101495.56
2023-04-02T10:36:07.555Z,101503.34
2023-04-02T10:38:34.003Z,101508.75
2023-04-02T10:41:00.550Z,101521.41
2023-04-02T10:43:26.932Z,101526.38
2023-04-02T10:45:53.331Z,101526.41
2023-04-02T10:48:19.760Z,101533.25
2023-04-02T10:50:46.274Z,101532.47
2023-04-02T10:53:12.732Z,101537.91
2023-04-02T10:55:42.454Z,101550.09
2023-04-02T10:58:08.901Z,101543.47
2023-04-02T11:00:35.314Z,101550.16
2023-04-02T11:03:02.103Z,101556.38
2023-04-02T11:05:29.145Z,101558.41
2023-04-02T11:07:55.798Z,101564.13
2023-04-02T11:10:22.253Z,101578.91
2023-04-02T11:12:48.632Z,101572.28
2023-04-02T11:15:14.968Z,101577.38
2023-04-02T11:17:41.453Z,101593.56
2023-04-02T11:20:07.836Z,101587.97
2023-04-02T11:22:34.225Z,101588.69
2023-04-02T11:25:00.612Z,101589.41
2023-04-02T11:27:27.033Z,101587.56
2023-04-02T11:29:53.448Z,101605.03
2023-04-02T11:32:19.806Z,101590.22
2023-04-02T11:34:48.095Z,101592.75
2023-04-02T11:37:18.079Z,101603.75
2023-04-02T11:39:44.453Z,101605.78
2023-04-02T11:42:11.038Z,101599.16
2023-04-02T11:44:37.465Z,101598.97
2023-04-02T11:47:03.865Z,101614.13
2023-04-02T11:49:30.246Z,101609.41
2023-04-02T11:52:09.010Z,101613.09
2023-04-02T11:54:38.956Z,101616.75
2023-04-02T11:57:06.512Z,101617.81
2023-04-02T11:59:32.954Z,101623.91
2023-04-02T12:01:59.374Z,101618.59
2023-04-02T12:04:25.879Z,101619.22
2023-04-02T12:06:52.457Z,101621.81
2023-04-02T12:09:18.880Z,101631.25
2023-04-02T12:11:47.387Z,101647.69
2023-04-02T12:14:13.826Z,101654.06
2023-04-02T12:16:40.221Z,101647.94
2023-04-02T12:19:06.710Z,101651.06
2023-04-02T12:21:33.130Z,101650.25
2023-04-02T12:23:59.640Z,101651.44
2023-04-02T12:26:26.073Z,101659.91
2023-04-02T12:28:52.522Z,101662.75
2023-04-02T12:31:19.008Z,101668.59
2023-04-02T12:33:45.778Z,101663.16
2023-04-02T12:36:14.149Z,101670.91
2023-04-02T12:38:40.658Z,101677.81
2023-04-02T12:41:07.029Z,101679.97
2023-04-02T12:43:33.814Z,101682.31
2023-04-02T12:46:00.364Z,101684.97
2023-04-02T12:48:27.057Z,101681.13
2023-04-02T12:50:53.437Z,101685.03
2023-04-02T12:53:20.673Z,101685.16
2023-04-02T12:55:47.105Z,101686.88
2023-04-02T12:58:13.477Z,101679.88
2023-04-02T13:00:39.903Z,101688.47
2023-04-02T13:03:06.528Z,101697.78
2023-04-02T13:05:33.165Z,101696.50
2023-04-02T13:07:59.584Z,101706.44
2023-04-02T13:10:25.958Z,101704.91
2023-04-02T13:12:52.355Z,101713.84
2023-04-02T13:15:18.693Z,101711.00
2023-04-02T13:17:45.276Z,101711.31
2023-04-02T13:20:11.688Z,101718.28
2023-04-02T13:22:38.039Z,101712.66
2023-04-02T13:25:04.528Z,101719.50
2023-04-02T13:27:31.120Z,101730.91
2023-04-02T13:29:57.591Z,101707.19
2023-04-02T13:32:23.980Z,101719.47
2023-04-02T13:34:50.366Z,101717.50
2023-04-02T13:37:16.801Z,101734.72
2023-04-02T13:39:43.254Z,101737.16
2023-04-02T13:42:09.646Z,101737.03
2023-04-02T13:44:37.630Z,101738.16
2023-04-02T13:47:04.338Z,101749.91
2023-04-02T13:49:30.789Z,101744.31
2023-04-02T13:51:58.746Z,101747.25
2023-04-02T13:54:25.709Z,101744.47
2023-04-02T13:56:52.641Z,101746.53
2023-04-02T13:59:19.137Z,101746.63
2023-04-02T14:01:45.526Z,101753.88
2023-04-02T14:04:12.256Z,101754.41
2023-04-02T14:06:39.076Z,101745.63
2023-04-02T14:09:05.568Z,101748.31
2023-04-02T14:11:31.988Z,101752.78
2023-04-02T14:13:58.374Z,101745.09
2023-04-02T14:16:24.820Z,101754.72
2023-04-02T14:18:51.438Z,101748.53
2023-04-02T14:21:17.782Z,101751.50
2023-04-02T14:23:44.205Z,101750.09
2023-04-02T14:26:10.584Z,101751.06
2023-04-02T14:28:40.066Z,101744.03
2023-04-02T14:31:06.507Z,101742.44
2023-04-02T14:33:32.952Z,101756.06
2023-04-02T14:35:59.384Z,101747.66
2023-04-02T14:38:25.858Z,101753.25
2023-04-02T14:40:52.350Z,101753.91
2023-04-02T14:43:18.714Z,101741.56
2023-04-02T14:45:45.207Z,101753.84
2023-04-02T14:48:11.633Z,101751.53
2023-04-02T14:50:38.325Z,101758.94
2023-04-02T14:53:04.836Z,101770.59
2023-04-02T14:55:31.423Z,101768.56
2023-04-02T14:57:58.390Z,101772.03
2023-04-02T15:00:25.023Z,101770.00
2023-04-02T15:02:51.614Z,101771.03
2023-04-02T15:05:18.638Z,101785.34
2023-04-02T15:07:45.399Z,101778.97
2023-04-02T15:10:12.440Z,101779.22
2023-04-02T15:12:39.162Z,101792.66
2023-04-02T15:15:06.244Z,101779.91
2023-04-02T15:17:32.878Z,101791.34
2023-04-02T15:19:59.383Z,101778.91
2023-04-02T15:22:25.976Z,101789.03
2023-04-02T15:24:52.361Z,101790.00
2023-04-02T15:27:24.912Z,101786.09
2023-04-02T15:29:52.106Z,101794.47
2023-04-02T15:32:18.787Z,101795.59
2023-04-02T15:34:45.316Z,101787.56
2023-04-02T15:37:13.502Z,101791.81
2023-04-02T15:39:40.075Z,101799.03
2023-04-02T15:42:06.522Z,101797.38
2023-04-02T15:44:32.909Z,101796.78
2023-04-02T15:46:59.493Z,101798.06
2023-04-02T15:49:26.245Z,101800.34
2023-04-02T15:51:52.988Z,101799.53
2023-04-02T15:54:19.657Z,101812.19
2023-04-02T15:56:46.744Z,101816.44
2023-04-02T15:59:13.626Z,101822.66
2023-04-02T16:01:40.961Z,101810.72
2023-04-02T16:04:07.685Z,101822.91
2023-04-02T16:06:34.161Z,101827.75
2023-04-02T16:09:00.814Z,101833.47
2023-04-02T16:11:27.405Z,101832.00
2023-04-02T16:13:53.784Z,101834.47
2023-04-02T16:16:20.224Z,101844.00
2023-04-02T16:18:46.621Z,101833.81
2023-04-02T16:21:13.031Z,101846.84
2023-04-02T16:23:39.467Z,101856.09
2023-04-02T16:26:06.322Z,101855.97
2023-04-02T16:28:32.707Z,101856.25
2023-04-02T16:30:59.153Z,101860.16
2023-04-02T16:33:25.522Z,101871.06
2023-04-02T16:35:51.921Z,101871.66
2023-04-02T16:38:18.323Z,101854.44
2023-04-02T16:40:47.698Z,101871.09
2023-04-02T16:43:18.014Z,101869.75
2023-04-02T16:45:44.439Z,101872.97
2023-04-02T16:48:10.915Z,101872.66
2023-04-02T16:50:37.930Z,101875.59
2023-04-02T16:53:04.583Z,101883.91
2023-04-02T16:55:31.423Z,101896.88
2023-04-02T16:57:58.288Z,101903.38
2023-04-02T17:00:25.164Z,101904.13
2023-04-02T17:02:51.953Z,101910.63
2023-04-02T17:05:18.435Z,101909.97
2023-04-02T17:07:45.109Z,101915.75
2023-04-02T17:10:11.570Z,101920.59
2023-04-02T17:12:38.111Z,101931.56
2023-04-02T17:15:05.778Z,101936.16
2023-04-02T17:17:34.011Z,101948.13
2023-04-02T17:20:00.443Z,101947.16
2023-04-02T17:22:26.969Z,101937.38
2023-04-02T17:24:54.019Z,101951.03
2023-04-02T17:27:41.190Z,101957.78
2023-04-02T17:30:09.560Z,101952.47
2023-04-02T17:32:37.388Z,101952.47
2023-04-02T17:35:04.383Z,101960.19
2023-04-02T17:37:31.388Z,101969.00
2023-04-02T17:39:58.007Z,101977.59
2023-04-02T17:42:24.660Z,101974.41
2023-04-02T17:44:51.180Z,101970.66
2023-04-02T17:47:17.579Z,101977.94
2023-04-02T17:49:43.930Z,101980.44
2023-04-02T17:52:10.402Z,101984.31
2023-04-02T17:54:37.242Z,101990.00
2023-04-02T17:57:03.742Z,101990.78
2023-04-02T17:59:30.304Z,101989.16
2023-04-02T18:01:56.721Z,101996.53
2023-04-02T18:04:23.188Z,102003.72
2023-04-02T18:06:49.637Z,102006.03
2023-04-02T18:09:16.554Z,102019.38
2023-04-02T18:11:42.923Z,102011.09
2023-04-02T18:14:09.356Z,102020.19
2023-04-02T18:16:35.915Z,102019.38
2023-04-02T18:19:03.599Z,102017.72
2023-04-02T18:21:29.951Z,102020.69
2023-04-02T18:23:57.450Z,102018.25
2023-04-02T18:26:26.037Z,102026.38
2023-04-02T18:28:53.670Z,102038.44
2023-04-02T18:31:21.706Z,102039.88
2023-04-02T18:33:49.499Z,102040.91
2023-04-02T18:36:15.944Z,102042.94
2023-04-02T18:38:42.487Z,102053.94
2023-04-02T18:41:08.920Z,102052.59
2023-04-02T18:43:35.409Z,102050.28
2023-04-02T18:46:04.970Z,102053.88
2023-04-02T18:48:31.443Z,102054.09
2023-04-02T18:50:57.928Z,102057.28
2023-04-02T18:53:24.778Z,102061.81
2023-04-02T18:55:51.417Z,102067.19
2023-04-02T18:58:18.099Z,102076.06
2023-04-02T19:00:44.587Z,102078.25
2023-04-02T19:03:11.357Z,102080.72
2023-04-02T19:05:39.090Z,102082.31
2023-04-02T19:08:05.760Z,102094.97
2023-04-02T19:10:32.176Z,102098.50
2023-04-02T19:12:58.570Z,102095.53
2023-04-02T19:15:24.994Z,102102.06
2023-04-02T19:17:51.582Z,102101.56
2023-04-02T19:20:18.033Z,102099.34
2023-04-02T19:22:44.426Z,102107.66
2023-04-02T19:25:10.788Z,102103.38
2023-04-02T19:27:38.264Z,102104.59
2023-04-02T19:30:04.831Z,102109.00
2023-04-02T19:32:31.378Z,102118.25
2023-04-02T19:34:58.129Z,102117.91
2023-04-02T19:37:24.705Z,102115.72
2023-04-02T19:39:51.226Z,102125.44
2023-04-02T19:42:20.229Z,102122.03
2023-04-02T19:44:46.642Z,102121.75
2023-04-02T19:47:14.522Z,102125.22
2023-04-02T19:49:40.964Z,102133.53
2023-04-02T19:52:10.489Z,102127.13
2023-04-02T19:54:38.321Z,102132.47
2023-04-02T19:57:05.408Z,102134.34
2023-04-02T19:59:32.024Z,102135.47
2023-04-02T20:02:05.798Z,102135.84
2023-04-02T20:04:32.323Z,102145.06
2023-04-02T20:06:58.738Z,102151.63
2023-04-02T20:09:25.423Z,102144.38
2023-04-02T20:11:51.868Z,102144.88
2023-04-02T20:14:18.208Z,102149.19
2023-04-02T20:16:45.813Z,102145.84
2023-04-02T20:19:12.583Z,102158.38
2023-04-02T20:21:39.022Z,102166.16
2023-04-02T20:24:05.471Z,102162.06
2023-04-02T20:26:31.913Z,102166.47
2023-04-02T20:28:58.383Z,102167.38
2023-04-02T20:31:24.779Z,102166.75
2023-04-02T20:33:51.601Z,102175.06
2023-04-02T20:36:18.652Z,102169.97
2023-04-02T20:38:45.747Z,102178.69
2023-04-02T20:41:12.325Z,102181.81
2023-04-02T20:43:40.722Z,102181.41
2023-04-02T20:46:08.977Z,102183.94
2023-04-02T20:48:37.650Z,102181.06
2023-04-02T20:51:04.210Z,102185.69
2023-04-02T20:53:31.093Z,102197.69
2023-04-02T20:55:57.460Z,102194.97
2023-04-02T20:58:23.919Z,102193.50
2023-04-02T21:00:50.465Z,102210.44
2023-04-02T21:03:17.248Z,102208.56
2023-04-02T21:05:43.708Z,102201.91
2023-04-02T21:08:10.203Z,102203.38
2023-04-02T21:10:37.083Z,102210.31
2023-04-02T21:13:03.878Z,102213.66
2023-04-02T21:15:30.349Z,102220.75
2023-04-02T21:17:56.791Z,102220.19
2023-04-02T21:20:23.174Z,102223.16
2023-04-02T21:22:49.608Z,102227.97
2023-04-02T21:25:16.098Z,102231.72
2023-04-02T21:27:42.462Z,102224.28
2023-04-02T21:30:09.192Z,102227.59
2023-04-02T21:32:35.583Z,102229.88
2023-04-02T21:35:02.047Z,102222.47
2023-04-02T21:37:28.454Z,102229.09
2023-04-02T21:39:54.890Z,102230.84
2023-04-02T21:42:22.561Z,102224.31
2023-04-02T21:44:48.948Z,102230.38
2023-04-02T21:47:15.340Z,102232.56
2023-04-02T21:49:41.744Z,102235.13
2023-04-02T21:52:08.120Z,102236.22
2023-04-02T21:54:34.580Z,102236.81
2023-04-02T21:57:01.271Z,102239.31
2023-04-02T21:59:27.945Z,102243.66
2023-04-02T22:01:54.423Z,102243.84
2023-04-02T22:04:21.166Z,102242.66
2023-04-02T22:06:47.719Z,102239.59
2023-04-02T22:09:14.113Z,102242.50
2023-04-02T22:11:40.658Z,102240.78
2023-04-02T22:14:07.114Z,102243.03
2023-04-02T22:16:36.109Z,102251.75
2023-04-02T22:19:02.801Z,102246.13
2023-04-02T22:21:29.804Z,102248.47
2023-04-02T22:23:56.643Z,102253.84
2023-04-02T22:26:26.464Z,102261.28
2023-04-02T22:28:52.992Z,102257.25
2023-04-02T22:31:19.647Z,102258.44
2023-04-02T22:33:46.367Z,102263.38
2023-04-02T22:36:12.953Z,102265.53
2023-04-02T22:38:39.642Z,102262.59
2023-04-02T22:41:06.748Z,102263.91
2023-04-02T22:43:33.207Z,102266.78
2023-04-02T22:45:59.598Z,102269.88
2023-04-02T22:48:26.046Z,102276.81
2023-04-02T22:50:52.474Z,102276.38
2023-04-02T22:53:18.876Z,102273.03
2023-04-02T22:55:45.544Z,102279.72
2023-04-02T22:58:12.137Z,102285.94
2023-04-02T23:00:38.704Z,102283.78
2023-04-02T23:03:05.370Z,102283.66
2023-04-02T23:05:34.539Z,102279.50
2023-04-02T23:08:01.006Z,102284.16
2023-04-02T23:10:29.046Z,102292.06
2023-04-02T23:12:57.129Z,102289.97
2023-04-02T23:15:23.521Z,102288.22
2023-04-02T23:17:50.181Z,102291.16
2023-04-02T23:20:17.054Z,102293.41
2023-04-02T23:22:43.423Z,102287.78
2023-04-02T23:25:09.905Z,102283.91
2023-04-02T23:27:36.569Z,102287.94
2023-04-02T23:30:02.996Z,102287.44
2023-04-02T23:32:29.450Z,102289.47
2023-04-02T23:34:58.551Z,102296.63
2023-04-02T23:37:24.903Z,102291.56
2023-04-02T23:39:51.295Z,102298.88
2023-04-02T23:42:17.644Z,102298.91
2023-04-02T23:44:44.016Z,102306.38
2023-04-02T23:47:12.501Z,102306.84
2023-04-02T23:49:39.350Z,102298.06
2023-04-02T23:52:05.825Z,102293.78
2023-04-02T23:54:32.228Z,102303.47
2023-04-02T23:57:01.692Z,102306.06
2023-04-02T23:59:28.136Z,102300.50
